createdAt,value
2023-05-10T00:00:45.246Z,101506.73
2023-05-10T00:04:43.583Z,101511.18
2023-05-10T00:08:45.286Z,101507.90
2023-05-10T00:12:43.776Z,101503.38
2023-05-10T00:16:45.569Z,101507.97
2023-05-10T00:20:43.764Z,101504.77
2023-05-10T00:24:45.681Z,101509.70
2023-05-10T00:28:43.596Z,101507.56
2023-05-10T00:32:45.382Z,101496.88
2023-05-10T00:36:43.635Z,101498.98
2023-05-10T00:40:45.239Z,101492.67
2023-05-10T00:44:49.629Z,101487.50
2023-05-10T00:48:51.215Z,101479.58
2023-05-10T00:52:48.758Z,101474.25
2023-05-10T00:56:49.732Z,101470.89
2023-05-10T01:00:47.611Z,101468.77
2023-05-10T01:04:49.282Z,101468.87
2023-05-10T01:08:47.755Z,101467.70
2023-05-10T01:12:46.667Z,101476.10
2023-05-10T01:16:41.850Z,101475.27
2023-05-10T01:20:42.745Z,101476.63
2023-05-10T01:24:39.062Z,101473.98
2023-05-10T01:28:38.766Z,101475.77
2023-05-10T01:32:34.977Z,101473.68
2023-05-10T01:36:34.402Z,101477.42
2023-05-10T01:40:30.164Z,101475.40
2023-05-10T01:44:29.344Z,101478.05
2023-05-10T01:48:24.995Z,101477.23
2023-05-10T01:52:24.751Z,101476.99
2023-05-10T01:56:22.218Z,101475.95
2023-05-10T02:00:21.461Z,101482.45
2023-05-10T02:04:19.949Z,101481.44
2023-05-10T02:08:19.054Z,101479.17
2023-05-10T02:12:14.907Z,101478.55
2023-05-10T02:16:14.681Z,101480.69
2023-05-10T02:20:09.829Z,101486.66
2023-05-10T02:24:08.713Z,101487.61
2023-05-10T02:28:04.229Z,101488.95
2023-05-10T02:32:03.475Z,101490.70
2023-05-10T02:36:00.134Z,101494.60
2023-05-10T02:39:59.666Z,101493.98
2023-05-10T02:43:54.934Z,101491.32
2023-05-10T02:47:53.303Z,101487.82
2023-05-10T02:51:53.640Z,101492.39
2023-05-10T02:55:48.841Z,101498.65
2023-05-10T02:59:48.077Z,101502.23
2023-05-10T03:03:44.470Z,101498.90
2023-05-10T03:07:48.884Z,101507.44
2023-05-10T03:11:50.939Z,101513.16
2023-05-10T03:15:50.823Z,101515.86
2023-05-10T03:19:52.551Z,101516.83
2023-05-10T03:23:50.847Z,101520.48
2023-05-10T03:27:51.870Z,101516.59
2023-05-10T03:31:51.403Z,101517.89
2023-05-10T03:35:53.902Z,101513.91
2023-05-10T03:39:51.851Z,101512.02
2023-05-10T03:43:54.073Z,101515.81
2023-05-10T03:47:51.919Z,101523.98
2023-05-10T03:51:53.958Z,101520.54
2023-05-10T03:55:51.969Z,101526.23
2023-05-10T03:59:53.355Z,101530.89
2023-05-10T04:03:52.216Z,101524.81
2023-05-10T04:07:54.030Z,101526.48
2023-05-10T04:11:51.901Z,101530.56
2023-05-10T04:15:53.595Z,101535.29
2023-05-10T04:19:52.239Z,101535.10
2023-05-10T04:23:53.567Z,101532.45
2023-05-10T04:27:52.011Z,101536.19
2023-05-10T04:31:53.604Z,101533.81
2023-05-10T04:35:52.045Z,101534.58
2023-05-10T04:39:53.435Z,101537.36
2023-05-10T04:43:52.020Z,101535.38
2023-05-10T04:47:53.598Z,101530.27
2023-05-10T04:51:55.034Z,101528.30
2023-05-10T04:55:52.952Z,101524.96
2023-05-10T04:59:54.686Z,101525.13
2023-05-10T05:03:53.178Z,101524.36
2023-05-10T05:07:55.005Z,101530.53
2023-05-10T05:11:53.158Z,101530.43
2023-05-10T05:15:52.908Z,101532.76
2023-05-10T05:19:48.400Z,101540.30
2023-05-10T05:23:47.963Z,101539.48
2023-05-10T05:27:43.431Z,101538.12
2023-05-10T05:31:43.008Z,101538.41
2023-05-10T05:35:38.334Z,101536.78
2023-05-10T05:39:37.259Z,101535.36
2023-05-10T05:43:38.360Z,101529.46
2023-05-10T05:47:38.390Z,101531.73
2023-05-10T05:51:34.568Z,101530.74
2023-05-10T05:55:33.990Z,101521.91
2023-05-10T05:59:29.319Z,101523.23
2023-05-10T06:03:28.502Z,101520.94
2023-05-10T06:07:24.317Z,101517.56
2023-05-10T06:11:23.472Z,101515.97
2023-05-10T06:15:19.553Z,101516.55
2023-05-10T06:19:19.282Z,101517.21
2023-05-10T06:23:14.394Z,101512.30
2023-05-10T06:27:13.313Z,101512.96
2023-05-10T06:31:08.583Z,101510.88
2023-05-10T06:35:07.857Z,101510.25
2023-05-10T06:39:03.346Z,101510.64
2023-05-10T06:43:02.464Z,101514.19
2023-05-10T06:46:58.625Z,101509.30
2023-05-10T06:50:58.169Z,101512.53
2023-05-10T06:54:53.746Z,101514.02
2023-05-10T06:58:52.932Z,101515.13
2023-05-10T07:02:48.519Z,101507.75
2023-05-10T07:06:53.192Z,101514.16
2023-05-10T07:10:54.786Z,101512.27
2023-05-10T07:14:53.256Z,101508.55
2023-05-10T07:18:52.738Z,101509.52
2023-05-10T07:22:51.268Z,101509.81
2023-05-10T07:26:53.326Z,101506.11
2023-05-10T07:30:48.730Z,101506.38
2023-05-10T07:34:50.502Z,101501.73
2023-05-10T07:38:48.489Z,101497.52
2023-05-10T07:42:49.842Z,101492.45
2023-05-10T07:46:48.458Z,101497.52
2023-05-10T07:50:50.104Z,101499.02
2023-05-10T07:54:48.400Z,101496.42
2023-05-10T07:58:50.472Z,101495.65
2023-05-10T08:02:47.558Z,101494.09
2023-05-10T08:06:49.318Z,101491.30
2023-05-10T08:10:47.501Z,101491.48
2023-05-10T08:14:48.912Z,101486.86
2023-05-10T08:18:47.455Z,101485.36
2023-05-10T08:22:51.151Z,101486.73
2023-05-10T08:26:51.756Z,101486.09
2023-05-10T08:30:55.416Z,101476.75
2023-05-10T08:34:53.288Z,101471.15
2023-05-10T08:38:55.472Z,101473.35
2023-05-10T08:42:52.305Z,101470.51
2023-05-10T08:46:54.094Z,101469.40
2023-05-10T08:50:52.694Z,101467.23
2023-05-10T08:54:54.314Z,101471.40
2023-05-10T08:58:52.553Z,101475.81
2023-05-10T09:02:54.585Z,101467.76
2023-05-10T09:06:51.332Z,101466.45
2023-05-10T09:10:51.022Z,101464.96
2023-05-10T09:14:46.777Z,101459.55
2023-05-10T09:18:46.458Z,101464.77
2023-05-10T09:22:41.771Z,101461.39
2023-05-10T09:26:43.548Z,101464.46
2023-05-10T09:30:38.690Z,101462.39
2023-05-10T09:34:38.258Z,101459.91
2023-05-10T09:38:30.501Z,101458.77
2023-05-10T09:42:15.538Z,101464.38
2023-05-10T09:46:00.626Z,101461.41
2023-05-10T09:49:45.752Z,101463.69
2023-05-10T09:53:30.793Z,101461.94
2023-05-10T09:57:15.959Z,101463.15
2023-05-10T10:01:09.311Z,101461.86
2023-05-10T10:05:08.963Z,101454.67
2023-05-10T10:09:04.788Z,101457.63
2023-05-10T10:13:04.544Z,101452.70
2023-05-10T10:17:08.439Z,101455.58
2023-05-10T10:21:08.563Z,101452.70
2023-05-10T10:25:03.957Z,101451.15
2023-05-10T10:29:01.342Z,101449.09
2023-05-10T10:32:46.483Z,101446.30
2023-05-10T10:36:32.070Z,101445.00
2023-05-10T10:40:17.611Z,101447.26
2023-05-10T10:44:02.674Z,101450.66
2023-05-10T10:47:47.646Z,101444.63
2023-05-10T10:51:32.912Z,101439.73
2023-05-10T10:55:18.225Z,101437.80
2023-05-10T10:59:03.571Z,101432.45
2023-05-10T11:02:54.677Z,101437.17
2023-05-10T11:06:55.979Z,101432.76
2023-05-10T11:10:57.699Z,101426.89
2023-05-10T11:14:55.109Z,101427.73
2023-05-10T11:18:56.610Z,101421.95
2023-05-10T11:22:54.125Z,101420.15
2023-05-10T11:26:55.769Z,101420.99
2023-05-10T11:30:53.861Z,101422.05
2023-05-10T11:34:55.322Z,101421.02
2023-05-10T11:38:53.712Z,101415.20
2023-05-10T11:42:52.872Z,101411.71
2023-05-10T11:46:50.826Z,101415.27
2023-05-10T11:50:50.310Z,101414.05
2023-05-10T11:54:48.708Z,101415.23
2023-05-10T11:58:53.987Z,101410.39
2023-05-10T12:02:53.047Z,101409.23
2023-05-10T12:06:54.853Z,101410.34
2023-05-10T12:10:49.982Z,101408.67
2023-05-10T12:14:51.860Z,101405.91
2023-05-10T12:18:47.147Z,101405.94
2023-05-10T12:22:48.814Z,101402.23
2023-05-10T12:31:01.739Z,101398.89
2023-05-10T12:34:59.908Z,101393.30
2023-05-10T12:39:01.268Z,101393.73
2023-05-10T12:42:59.920Z,101394.47
2023-05-10T12:46:58.827Z,101391.33
2023-05-10T12:51:00.446Z,101388.21
2023-05-10T12:54:56.201Z,101399.92
2023-05-10T12:58:57.781Z,101397.23
2023-05-10T13:02:56.156Z,101390.10
2023-05-10T13:06:57.802Z,101386.94
2023-05-10T13:10:55.285Z,101385.95
2023-05-10T13:14:55.471Z,101386.30
2023-05-10T13:18:53.077Z,101385.02
2023-05-10T13:22:52.263Z,101387.92
2023-05-10T13:26:50.385Z,101383.46
2023-05-10T13:30:49.906Z,101386.08
2023-05-10T13:34:47.190Z,101386.45
2023-05-10T13:38:46.848Z,101381.41
2023-05-10T13:42:44.247Z,101383.04
2023-05-10T13:46:44.600Z,101381.37
2023-05-10T13:50:41.688Z,101382.85
2023-05-10T13:54:41.477Z,101385.77
2023-05-10T13:58:39.115Z,101383.70
2023-05-10T14:02:38.570Z,101378.41
2023-05-10T14:06:36.426Z,101378.30
2023-05-10T14:10:34.521Z,101379.27
2023-05-10T14:14:32.442Z,101381.94
2023-05-10T14:18:32.784Z,101389.24
2023-05-10T14:22:30.368Z,101388.78
2023-05-10T14:26:30.442Z,101386.27
2023-05-10T14:30:28.650Z,101381.10
2023-05-10T14:34:29.560Z,101382.05
2023-05-10T14:38:28.193Z,101379.02
2023-05-10T14:42:29.588Z,101377.86
2023-05-10T14:46:28.022Z,101375.67
2023-05-10T14:50:36.060Z,101370.02
2023-05-10T14:54:36.205Z,101367.68
2023-05-10T14:58:37.578Z,101367.27
2023-05-10T15:02:36.109Z,101366.67
2023-05-10T15:06:37.611Z,101368.96
2023-05-10T15:10:36.257Z,101364.91
2023-05-10T15:14:37.480Z,101360.02
2023-05-10T15:18:36.293Z,101364.58
2023-05-10T15:22:37.596Z,101364.80
2023-05-10T15:26:36.167Z,101364.55
2023-05-10T15:30:37.614Z,101360.14
2023-05-10T15:34:37.087Z,101356.70
2023-05-10T15:38:38.725Z,101355.31
2023-05-10T15:42:37.255Z,101356.96
2023-05-10T15:46:37.077Z,101352.73
2023-05-10T15:50:38.785Z,101350.74
2023-05-10T15:54:37.301Z,101352.63
2023-05-10T15:58:38.769Z,101353.02
2023-05-10T16:02:37.478Z,101350.83
2023-05-10T16:06:38.752Z,101354.70
2023-05-10T16:10:37.154Z,101358.83
2023-05-10T16:14:38.886Z,101361.89
2023-05-10T16:18:36.422Z,101363.48
2023-05-10T16:22:37.761Z,101367.86
2023-05-10T16:26:36.368Z,101365.08
2023-05-10T16:30:37.755Z,101369.94
2023-05-10T16:34:37.171Z,101371.20
2023-05-10T16:38:38.916Z,101376.78
2023-05-10T16:42:36.362Z,101373.04
2023-05-10T16:46:36.922Z,101374.04
2023-05-10T16:50:34.684Z,101372.63
2023-05-10T16:54:34.963Z,101370.91
2023-05-10T16:58:33.440Z,101377.07
2023-05-10T17:02:34.107Z,101377.59
2023-05-10T17:06:31.999Z,101381.61
2023-05-10T17:10:32.084Z,101377.77
2023-05-10T17:14:29.630Z,101382.64
2023-05-10T17:18:30.061Z,101387.23
2023-05-10T17:22:27.583Z,101390.55
2023-05-10T17:26:28.042Z,101393.33
2023-05-10T17:30:25.700Z,101396.41
2023-05-10T17:34:26.498Z,101397.94
2023-05-10T17:38:24.924Z,101399.09
2023-05-10T17:42:27.094Z,101404.36
2023-05-10T17:46:24.471Z,101405.77
2023-05-10T17:50:25.015Z,101415.20
2023-05-10T17:54:22.598Z,101422.40
2023-05-10T17:58:22.175Z,101434.06
2023-05-10T18:02:19.521Z,101433.30
2023-05-10T18:06:20.139Z,101436.17
2023-05-10T18:10:17.465Z,101440.70
2023-05-10T18:14:32.024Z,101445.48
2023-05-10T18:18:36.657Z,101454.23
2023-05-10T18:22:37.071Z,101454.23
2023-05-10T18:26:35.094Z,101457.33
2023-05-10T18:30:34.921Z,101464.74
2023-05-10T18:34:35.027Z,101462.92
2023-05-10T18:38:32.893Z,101465.29
2023-05-10T18:42:31.042Z,101464.56
2023-05-10T18:46:28.883Z,101466.85
2023-05-10T18:50:28.043Z,101468.94
2023-05-10T18:54:25.818Z,101473.98
2023-05-10T18:58:25.036Z,101472.69
2023-05-10T19:02:22.745Z,101474.83
2023-05-10T19:06:33.547Z,101472.99
2023-05-10T19:10:31.531Z,101479.45
2023-05-10T19:14:31.750Z,101478.57
2023-05-10T19:18:33.632Z,101478.03
2023-05-10T19:22:54.201Z,101482.36
2023-05-10T19:27:01.878Z,101487.16
2023-05-10T19:31:03.885Z,101487.06
2023-05-10T19:35:06.125Z,101484.97
2023-05-10T19:39:06.003Z,101490.58
2023-05-10T19:43:07.436Z,101491.11
2023-05-10T19:47:05.721Z,101494.20
2023-05-10T19:51:09.976Z,101492.03
2023-05-10T19:55:10.122Z,101489.91
2023-05-10T19:59:08.475Z,101491.72
2023-05-10T20:03:09.982Z,101490.14
2023-05-10T20:07:11.688Z,101492.48
2023-05-10T20:11:10.474Z,101494.30
2023-05-10T20:15:12.152Z,101494.30
2023-05-10T20:19:10.895Z,101493.70
2023-05-10T20:23:12.551Z,101493.13
2023-05-10T20:27:10.893Z,101496.10
2023-05-10T20:31:12.934Z,101498.73
2023-05-10T20:35:11.578Z,101494.39
2023-05-10T20:39:13.197Z,101496.96
2023-05-10T20:43:11.684Z,101495.68
2023-05-10T20:47:13.353Z,101491.88
2023-05-10T20:51:11.795Z,101490.39
2023-05-10T20:55:13.079Z,101490.73
2023-05-10T20:59:11.727Z,101492.83
2023-05-10T21:03:13.090Z,101496.67
2023-05-10T21:07:11.776Z,101494.13
2023-05-10T21:11:11.519Z,101495.90
2023-05-10T21:15:07.240Z,101497.33
2023-05-10T21:19:06.272Z,101500.48
2023-05-10T21:23:01.878Z,101504.09
2023-05-10T21:27:00.973Z,101503.37
2023-05-10T21:30:57.359Z,101508.92
2023-05-10T21:34:56.461Z,101506.23
2023-05-10T21:38:51.736Z,101507.51
2023-05-10T21:42:46.831Z,101506.98
2023-05-10T21:46:45.971Z,101507.30
2023-05-10T21:50:42.185Z,101507.60
2023-05-10T21:54:41.755Z,101510.21
2023-05-10T21:58:37.035Z,101510.20
2023-05-10T22:02:36.488Z,101512.20
2023-05-10T22:06:31.866Z,101511.47
2023-05-10T22:10:31.044Z,101515.50
2023-05-10T22:14:27.257Z,101514.63
2023-05-10T22:18:26.789Z,101515.73
2023-05-10T22:22:22.006Z,101517.28
2023-05-10T22:26:20.788Z,101516.39
2023-05-10T22:30:16.410Z,101513.05
2023-05-10T22:34:16.362Z,101518.27
2023-05-10T22:38:12.120Z,101516.89
2023-05-10T22:42:11.502Z,101516.25
2023-05-10T22:46:07.268Z,101515.54
2023-05-10T22:50:06.934Z,101516.71
2023-05-10T22:54:02.009Z,101517.84
2023-05-10T22:58:01.026Z,101518.84
2023-05-10T23:01:56.044Z,101517.64
2023-05-10T23:06:00.863Z,101517.99
2023-05-10T23:10:02.560Z,101519.02
2023-05-10T23:14:00.771Z,101517.55
2023-05-10T23:18:02.321Z,101516.85
2023-05-10T23:22:01.186Z,101515.14
2023-05-10T23:26:02.812Z,101513.73
2023-05-10T23:30:01.028Z,101511.21
2023-05-10T23:34:02.451Z,101511.36
2023-05-10T23:38:00.912Z,101510.98
2023-05-10T23:42:02.592Z,101514.59
2023-05-10T23:46:01.024Z,101513.05
2023-05-10T23:50:02.557Z,101523.98
2023-05-10T23:54:01.051Z,101528.06
2023-05-10T23:57:58.973Z,101528.41
